createdAt,value
2022-07-31T00:00:11.817Z,18.10
2022-07-31T00:02:38.782Z,18.10
2022-07-31T00:05:06.038Z,18.10
2022-07-31T00:07:32.972Z,18.10
2022-07-31T00:09:59.959Z,18.10
2022-07-31T00:12:26.886Z,18.20
2022-07-31T00:14:54.385Z,18.20
2022-07-31T00:17:21.402Z,18.20
2022-07-31T00:19:48.341Z,18.20
2022-07-31T00:22:15.329Z,18.20
2022-07-31T00:24:42.252Z,18.20
2022-07-31T00:27:10.996Z,18.10
2022-07-31T00:29:38.776Z,18.00
2022-07-31T00:32:06.273Z,18.00
2022-07-31T00:34:33.438Z,18.10
2022-07-31T00:37:00.725Z,18.10
2022-07-31T00:39:28.107Z,18.10
2022-07-31T00:41:55.234Z,18.10
2022-07-31T00:44:22.180Z,18.10
2022-07-31T00:46:50.069Z,18.10
2022-07-31T00:49:17.282Z,18.20
2022-07-31T00:51:44.346Z,18.20
2022-07-31T00:54:22.429Z,18.10
2022-07-31T00:56:50.343Z,18.10
2022-07-31T00:59:24.247Z,18.10
2022-07-31T01:01:52.063Z,18.10
2022-07-31T01:04:19.843Z,18.10
2022-07-31T01:06:47.682Z,18.00
2022-07-31T01:09:15.387Z,18.00
2022-07-31T01:11:50.967Z,18.00
2022-07-31T01:14:20.531Z,18.00
2022-07-31T01:16:51.477Z,18.00
2022-07-31T01:19:48.646Z,18.00
2022-07-31T01:22:35.130Z,18.00
2022-07-31T01:25:12.468Z,18.00
2022-07-31T01:28:26.635Z,18.00
2022-07-31T01:31:24.188Z,17.90
2022-07-31T01:33:52.248Z,17.90
2022-07-31T01:36:27.639Z,17.80
2022-07-31T01:38:57.411Z,17.80
2022-07-31T01:41:30.125Z,17.70
2022-07-31T01:43:57.856Z,17.80
2022-07-31T01:46:27.687Z,17.80
2022-07-31T01:48:57.387Z,17.70
2022-07-31T01:51:26.925Z,17.80
2022-07-31T01:53:54.854Z,17.80
2022-07-31T01:56:23.229Z,17.70
2022-07-31T01:58:51.101Z,17.70
2022-07-31T02:01:21.426Z,17.70
2022-07-31T02:03:56.330Z,17.70
2022-07-31T02:06:24.846Z,17.70
2022-07-31T02:08:53.977Z,17.70
2022-07-31T02:11:21.618Z,17.70
2022-07-31T02:13:49.938Z,17.60
2022-07-31T02:16:19.142Z,17.70
2022-07-31T02:18:49.372Z,17.60
2022-07-31T02:21:17.888Z,17.70
2022-07-31T02:23:45.117Z,17.60
2022-07-31T02:26:13.264Z,17.60
2022-07-31T02:28:43.915Z,17.50
2022-07-31T02:31:13.207Z,17.50
2022-07-31T02:33:43.460Z,17.40
2022-07-31T02:36:12.741Z,17.30
2022-07-31T02:38:41.026Z,17.30
2022-07-31T02:41:09.873Z,17.20
2022-07-31T02:43:38.701Z,17.20
2022-07-31T02:46:08.188Z,17.20
2022-07-31T02:48:35.322Z,17.20
2022-07-31T02:51:02.783Z,17.20
2022-07-31T02:53:31.075Z,17.20
2022-07-31T02:55:58.940Z,17.20
2022-07-31T02:58:25.914Z,17.20
2022-07-31T03:01:01.356Z,17.20
2022-07-31T03:03:28.804Z,17.20
2022-07-31T03:05:55.951Z,17.20
2022-07-31T03:08:23.226Z,17.20
2022-07-31T03:10:50.494Z,17.30
2022-07-31T03:13:18.826Z,17.30
2022-07-31T03:15:50.317Z,17.30
2022-07-31T03:18:19.627Z,17.30
2022-07-31T03:20:47.338Z,17.30
2022-07-31T03:23:14.787Z,17.30
2022-07-31T03:25:42.381Z,17.20
2022-07-31T03:28:09.566Z,17.20
2022-07-31T03:30:36.696Z,17.20
2022-07-31T03:33:03.952Z,17.20
2022-07-31T03:35:31.366Z,17.20
2022-07-31T03:37:58.900Z,17.30
2022-07-31T03:40:26.194Z,17.20
2022-07-31T03:42:54.108Z,17.20
2022-07-31T03:45:21.856Z,17.30
2022-07-31T03:47:49.446Z,17.20
2022-07-31T03:50:17.431Z,17.30
2022-07-31T03:52:48.573Z,17.30
2022-07-31T03:55:17.069Z,17.40
2022-07-31T03:57:44.982Z,17.50
2022-07-31T04:00:16.888Z,17.50
2022-07-31T04:02:46.039Z,17.60
2022-07-31T04:05:13.099Z,17.80
2022-07-31T04:07:40.106Z,18.00
2022-07-31T04:10:07.748Z,18.20
2022-07-31T04:12:34.818Z,18.40
2022-07-31T04:15:01.720Z,18.60
2022-07-31T04:17:30.875Z,18.80
2022-07-31T04:20:00.751Z,19.00
2022-07-31T04:22:29.391Z,19.00
2022-07-31T04:24:57.854Z,19.10
2022-07-31T04:27:24.837Z,19.20
2022-07-31T04:29:51.962Z,19.50
2022-07-31T04:32:20.722Z,19.60
2022-07-31T04:34:47.630Z,19.80
2022-07-31T04:37:14.574Z,19.90
2022-07-31T04:39:41.535Z,20.20
2022-07-31T04:42:11.481Z,20.40
2022-07-31T04:44:38.779Z,20.60
2022-07-31T04:47:06.863Z,20.60
2022-07-31T04:49:34.457Z,20.80
2022-07-31T04:52:01.772Z,21.10
2022-07-31T04:54:29.888Z,21.00
2022-07-31T04:56:56.876Z,21.30
2022-07-31T04:59:24.277Z,21.50
2022-07-31T05:02:11.337Z,21.60
2022-07-31T05:04:39.359Z,21.60
2022-07-31T05:07:06.309Z,21.70
2022-07-31T05:09:36.521Z,21.90
2022-07-31T05:12:04.069Z,22.10
2022-07-31T05:14:31.532Z,22.20
2022-07-31T05:16:58.454Z,22.40
2022-07-31T05:19:29.926Z,22.50
2022-07-31T05:22:02.284Z,22.60
2022-07-31T05:24:33.502Z,22.60
2022-07-31T05:27:02.841Z,22.70
2022-07-31T05:29:32.967Z,22.80
2022-07-31T05:32:01.182Z,22.90
2022-07-31T05:34:31.399Z,23.00
2022-07-31T05:37:02.077Z,23.20
2022-07-31T05:39:29.591Z,23.30
2022-07-31T05:41:56.730Z,23.50
2022-07-31T05:44:24.796Z,23.50
2022-07-31T05:49:18.223Z,23.60
2022-07-31T05:51:46.884Z,23.60
2022-07-31T05:54:14.352Z,23.60
2022-07-31T05:56:41.347Z,23.60
2022-07-31T05:59:08.376Z,23.50
2022-07-31T06:01:35.534Z,23.70
2022-07-31T06:04:03.199Z,23.90
2022-07-31T06:06:30.253Z,24.00
2022-07-31T06:09:03.400Z,24.00
2022-07-31T06:11:31.012Z,24.10
2022-07-31T06:13:58.477Z,24.10
2022-07-31T06:16:25.430Z,24.20
2022-07-31T06:18:52.615Z,24.50
2022-07-31T06:23:45.403Z,24.40
2022-07-31T06:26:12.457Z,24.50
2022-07-31T06:28:48.907Z,24.30
2022-07-31T06:31:18.330Z,24.30
2022-07-31T06:33:48.538Z,24.40
2022-07-31T06:36:17.025Z,24.50
2022-07-31T06:38:43.963Z,24.50
2022-07-31T06:41:10.882Z,24.70
2022-07-31T06:43:37.854Z,23.80
2022-07-31T06:46:04.813Z,24.10
2022-07-31T06:48:31.897Z,24.00
2022-07-31T06:53:45.768Z,24.10
2022-07-31T06:56:12.705Z,24.70
2022-07-31T06:58:39.656Z,25.00
2022-07-31T07:01:06.676Z,25.20
2022-07-31T07:03:34.083Z,25.50
2022-07-31T07:06:01.184Z,25.80
2022-07-31T07:08:28.217Z,25.90
2022-07-31T07:10:55.447Z,26.20
2022-07-31T07:13:22.581Z,26.40
2022-07-31T07:15:50.699Z,26.30
2022-07-31T07:18:17.677Z,26.30
2022-07-31T07:20:44.836Z,26.30
2022-07-31T07:23:11.895Z,26.20
2022-07-31T07:25:38.873Z,26.30
2022-07-31T07:28:05.813Z,26.30
2022-07-31T07:30:33.085Z,25.90
2022-07-31T07:33:00.191Z,26.10
2022-07-31T07:35:32.052Z,26.20
2022-07-31T07:38:00.898Z,26.20
2022-07-31T07:40:28.825Z,26.30
2022-07-31T07:42:59.944Z,26.50
2022-07-31T07:45:29.760Z,26.60
2022-07-31T07:48:07.301Z,26.80
2022-07-31T07:50:34.679Z,26.50
2022-07-31T07:53:01.711Z,26.70
2022-07-31T07:55:37.592Z,26.90
2022-07-31T07:58:10.000Z,27.00
2022-07-31T08:00:39.107Z,27.10
2022-07-31T08:03:49.568Z,27.30
2022-07-31T08:05:53.972Z,27.30
2022-07-31T08:08:21.054Z,27.30
2022-07-31T08:10:48.057Z,27.40
2022-07-31T08:13:15.177Z,27.60
2022-07-31T08:15:42.302Z,27.60
2022-07-31T08:18:09.238Z,27.70
2022-07-31T08:20:38.403Z,27.70
2022-07-31T08:23:05.370Z,27.40
2022-07-31T08:25:32.362Z,27.20
2022-07-31T08:27:59.390Z,27.10
2022-07-31T08:30:30.661Z,27.20
2022-07-31T08:32:58.760Z,27.60
2022-07-31T08:35:26.667Z,27.40
2022-07-31T08:38:03.490Z,27.40
2022-07-31T08:40:32.755Z,27.20
2022-07-31T08:43:31.132Z,27.20
2022-07-31T08:46:00.123Z,27.30
2022-07-31T08:48:31.099Z,27.30
2022-07-31T08:50:58.800Z,27.10
2022-07-31T08:53:29.405Z,27.20
2022-07-31T08:55:57.869Z,27.20
2022-07-31T08:58:25.166Z,27.20
2022-07-31T09:00:52.256Z,27.20
2022-07-31T09:03:19.563Z,27.00
2022-07-31T09:05:46.588Z,26.70
2022-07-31T09:08:15.124Z,26.70
2022-07-31T09:10:49.099Z,26.80
2022-07-31T09:13:18.450Z,26.80
2022-07-31T09:15:46.602Z,27.00
2022-07-31T09:18:18.832Z,27.20
2022-07-31T09:20:56.883Z,27.40
2022-07-31T09:23:24.856Z,27.80
2022-07-31T09:25:53.878Z,28.10
2022-07-31T09:28:24.851Z,28.40
2022-07-31T09:30:57.001Z,28.40
2022-07-31T09:33:24.057Z,28.10
2022-07-31T09:35:52.629Z,28.10
2022-07-31T09:38:20.692Z,28.00
2022-07-31T09:40:57.236Z,28.10
2022-07-31T09:43:25.714Z,28.00
2022-07-31T09:46:00.343Z,28.00
2022-07-31T09:48:28.805Z,28.10
2022-07-31T09:51:01.916Z,28.10
2022-07-31T09:53:43.875Z,28.20
2022-07-31T09:56:12.785Z,28.30
2022-07-31T09:58:41.344Z,28.50
2022-07-31T10:01:13.291Z,28.60
2022-07-31T10:03:41.253Z,28.60
2022-07-31T10:06:16.409Z,28.90
2022-07-31T10:08:46.441Z,28.90
2022-07-31T10:11:19.924Z,29.20
2022-07-31T10:13:51.070Z,29.60
2022-07-31T10:16:19.566Z,29.60
2022-07-31T10:18:49.719Z,29.30
2022-07-31T10:21:17.684Z,29.00
2022-07-31T10:23:45.635Z,28.80
2022-07-31T10:26:13.487Z,28.80
2022-07-31T10:28:41.315Z,28.80
2022-07-31T10:31:08.750Z,28.70
2022-07-31T10:33:44.750Z,28.80
2022-07-31T10:36:17.192Z,28.70
2022-07-31T10:38:46.734Z,28.70
2022-07-31T10:41:32.396Z,28.80
2022-07-31T10:44:29.377Z,28.40
2022-07-31T10:46:57.968Z,28.10
2022-07-31T10:49:44.530Z,28.20
2022-07-31T10:52:12.202Z,28.40
2022-07-31T10:54:44.591Z,28.40
2022-07-31T10:57:32.500Z,28.50
2022-07-31T11:00:22.858Z,28.50
2022-07-31T11:02:55.617Z,28.60
2022-07-31T11:05:28.127Z,28.50
2022-07-31T11:08:03.821Z,28.60
2022-07-31T11:10:31.630Z,28.70
2022-07-31T11:13:07.721Z,28.90
2022-07-31T11:15:37.563Z,29.30
2022-07-31T11:18:26.679Z,29.50
2022-07-31T11:21:17.715Z,29.60
2022-07-31T11:23:56.015Z,29.40
2022-07-31T11:26:33.378Z,29.20
2022-07-31T11:30:00.870Z,29.00
2022-07-31T11:31:55.701Z,28.70
2022-07-31T11:34:22.947Z,28.80
2022-07-31T11:36:51.697Z,28.60
2022-07-31T11:39:19.200Z,28.50
2022-07-31T11:41:53.792Z,28.20
2022-07-31T11:44:22.097Z,28.30
2022-07-31T11:46:51.251Z,28.30
2022-07-31T11:49:39.218Z,27.90
2022-07-31T11:52:31.221Z,27.90
2022-07-31T11:55:09.854Z,28.10
2022-07-31T11:57:50.742Z,28.10
2022-07-31T12:00:26.966Z,28.50
2022-07-31T12:02:58.239Z,28.70
2022-07-31T12:05:37.616Z,28.60
2022-07-31T12:08:08.118Z,28.70
2022-07-31T12:10:35.527Z,28.80
2022-07-31T12:13:02.713Z,28.90
2022-07-31T12:15:29.842Z,28.60
2022-07-31T12:18:05.395Z,28.60
2022-07-31T12:20:36.608Z,28.60
2022-07-31T12:23:06.111Z,28.50
2022-07-31T12:25:47.860Z,28.70
2022-07-31T12:28:15.628Z,28.80
2022-07-31T12:30:43.420Z,29.10
2022-07-31T12:33:11.823Z,29.20
2022-07-31T12:35:54.467Z,29.50
2022-07-31T12:38:40.653Z,29.50
2022-07-31T12:41:08.471Z,29.50
2022-07-31T12:43:38.339Z,29.10
2022-07-31T12:46:05.433Z,29.00
2022-07-31T12:48:38.581Z,29.10
2022-07-31T12:51:07.462Z,28.90
2022-07-31T12:53:34.547Z,28.80
2022-07-31T12:56:01.884Z,28.60
2022-07-31T12:58:28.880Z,28.60
2022-07-31T13:00:57.238Z,28.60
2022-07-31T13:03:24.250Z,28.80
2022-07-31T13:06:06.210Z,29.00
2022-07-31T13:08:33.927Z,28.70
2022-07-31T13:11:00.851Z,28.60
2022-07-31T13:13:27.828Z,28.70
2022-07-31T13:15:54.791Z,28.80
2022-07-31T13:18:21.812Z,28.70
2022-07-31T13:20:48.744Z,28.70
2022-07-31T13:23:15.727Z,28.70
2022-07-31T13:25:42.684Z,28.60
2022-07-31T13:28:09.633Z,28.50
2022-07-31T13:30:36.580Z,28.50
2022-07-31T13:33:03.582Z,28.50
2022-07-31T13:35:31.907Z,28.50
2022-07-31T13:37:58.888Z,28.60
2022-07-31T13:40:45.571Z,28.60
2022-07-31T13:43:12.848Z,28.70
2022-07-31T13:45:40.066Z,28.80
2022-07-31T13:48:09.672Z,28.70
2022-07-31T13:50:39.672Z,28.60
2022-07-31T13:53:07.013Z,28.50
2022-07-31T13:55:33.934Z,28.50
2022-07-31T13:58:01.754Z,28.30
2022-07-31T14:00:29.966Z,28.30
2022-07-31T14:02:57.823Z,28.50
2022-07-31T14:05:26.472Z,28.40
2022-07-31T14:07:54.729Z,28.60
2022-07-31T14:10:22.275Z,28.70
2022-07-31T14:12:49.563Z,28.80
2022-07-31T14:15:19.531Z,28.80
2022-07-31T14:17:46.623Z,29.10
2022-07-31T14:20:14.066Z,28.80
2022-07-31T14:22:42.321Z,28.80
2022-07-31T14:25:10.146Z,28.80
2022-07-31T14:27:38.772Z,28.80
2022-07-31T14:30:09.422Z,28.70
2022-07-31T14:32:36.487Z,28.80
2022-07-31T14:35:08.154Z,28.80
2022-07-31T14:37:35.737Z,28.90
2022-07-31T14:40:03.956Z,28.70
2022-07-31T14:42:30.897Z,28.70
2022-07-31T14:44:58.976Z,28.80
2022-07-31T14:47:26.395Z,29.10
2022-07-31T14:50:07.222Z,29.10
2022-07-31T14:52:37.192Z,29.20
2022-07-31T14:55:04.317Z,29.30
2022-07-31T14:57:31.666Z,29.30
2022-07-31T14:59:58.676Z,29.30
2022-07-31T15:02:26.167Z,29.50
2022-07-31T15:04:53.544Z,29.90
2022-07-31T15:07:40.848Z,31.20
2022-07-31T15:10:10.137Z,33.20
2022-07-31T15:12:37.309Z,33.60
2022-07-31T15:15:04.662Z,34.40
2022-07-31T15:17:31.576Z,35.10
2022-07-31T15:19:58.638Z,34.40
2022-07-31T15:22:25.565Z,34.30
2022-07-31T15:24:52.523Z,34.00
2022-07-31T15:27:21.976Z,34.30
2022-07-31T15:30:00.171Z,34.50
2022-07-31T15:32:38.880Z,33.50
2022-07-31T15:35:08.435Z,32.90
2022-07-31T15:37:37.454Z,32.50
2022-07-31T15:40:06.763Z,32.40
2022-07-31T15:42:38.341Z,33.00
2022-07-31T15:45:13.683Z,32.60
2022-07-31T15:47:42.107Z,31.60
2022-07-31T15:50:10.595Z,31.40
2022-07-31T15:52:37.663Z,31.30
2022-07-31T15:55:05.150Z,30.60
2022-07-31T15:57:32.271Z,30.00
2022-07-31T15:59:59.523Z,29.80
2022-07-31T16:02:27.282Z,29.60
2022-07-31T16:04:57.475Z,29.50
2022-07-31T16:08:29.640Z,29.30
2022-07-31T16:10:17.871Z,29.10
2022-07-31T16:12:49.003Z,28.80
2022-07-31T16:15:17.263Z,28.70
2022-07-31T16:17:44.801Z,28.70
2022-07-31T16:20:12.806Z,28.60
2022-07-31T16:22:41.767Z,28.40
2022-07-31T16:25:10.174Z,28.30
2022-07-31T16:27:37.997Z,28.30
2022-07-31T16:30:06.902Z,28.30
2022-07-31T16:32:34.059Z,28.40
2022-07-31T16:35:01.835Z,28.40
2022-07-31T16:37:50.518Z,28.30
2022-07-31T16:40:30.396Z,28.20
2022-07-31T16:43:48.771Z,28.20
2022-07-31T16:45:56.149Z,28.20
2022-07-31T16:48:23.739Z,28.20
2022-07-31T16:50:53.350Z,28.20
2022-07-31T16:54:10.780Z,28.20
2022-07-31T16:56:14.558Z,28.10
2022-07-31T16:58:43.792Z,28.00
2022-07-31T17:01:54.020Z,28.00
2022-07-31T17:04:03.080Z,27.90
2022-07-31T17:06:37.324Z,27.80
2022-07-31T17:09:16.868Z,27.70
2022-07-31T17:11:51.705Z,27.70
2022-07-31T17:14:20.573Z,27.60
2022-07-31T17:16:49.651Z,27.50
2022-07-31T17:19:42.666Z,27.50
2022-07-31T17:22:11.257Z,27.50
2022-07-31T17:24:39.278Z,27.50
2022-07-31T17:27:08.055Z,27.40
2022-07-31T17:29:36.119Z,27.30
2022-07-31T17:32:03.814Z,27.30
2022-07-31T17:34:30.815Z,27.20
2022-07-31T17:36:57.887Z,27.20
2022-07-31T17:39:30.053Z,27.10
2022-07-31T17:41:57.963Z,27.00
2022-07-31T17:44:24.964Z,26.90
2022-07-31T17:46:52.781Z,26.90
2022-07-31T17:49:20.847Z,26.80
2022-07-31T17:51:57.907Z,26.80
2022-07-31T17:54:31.721Z,26.70
2022-07-31T17:56:59.572Z,26.60
2022-07-31T17:59:27.034Z,26.50
2022-07-31T18:02:00.482Z,26.40
2022-07-31T18:04:29.228Z,26.40
2022-07-31T18:06:57.494Z,26.40
2022-07-31T18:09:24.758Z,26.40
2022-07-31T18:11:53.496Z,26.30
2022-07-31T18:14:20.757Z,26.30
2022-07-31T18:16:52.888Z,26.20
2022-07-31T18:19:21.672Z,26.10
2022-07-31T18:21:49.358Z,26.00
2022-07-31T18:24:16.507Z,26.00
2022-07-31T18:26:43.508Z,26.00
2022-07-31T18:29:10.535Z,25.90
2022-07-31T18:31:37.755Z,25.80
2022-07-31T18:34:05.636Z,25.70
2022-07-31T18:36:34.298Z,25.50
2022-07-31T18:39:01.851Z,25.20
2022-07-31T18:41:28.974Z,25.00
2022-07-31T18:43:56.062Z,24.80
2022-07-31T18:46:24.911Z,24.60
2022-07-31T18:48:55.926Z,24.40
2022-07-31T18:51:28.077Z,24.20
2022-07-31T18:53:55.779Z,24.10
2022-07-31T18:56:26.262Z,23.90
2022-07-31T18:58:54.284Z,23.80
2022-07-31T19:01:23.849Z,23.60
2022-07-31T19:03:51.439Z,23.50
2022-07-31T19:06:19.183Z,23.40
2022-07-31T19:08:46.347Z,23.30
2022-07-31T19:11:13.385Z,23.10
2022-07-31T19:13:40.476Z,23.00
2022-07-31T19:16:07.534Z,23.00
2022-07-31T19:18:34.478Z,22.90
2022-07-31T19:21:22.762Z,22.70
2022-07-31T19:23:49.528Z,22.70
2022-07-31T19:26:16.814Z,22.70
2022-07-31T19:28:43.968Z,22.60
2022-07-31T19:31:13.195Z,22.50
2022-07-31T19:33:40.306Z,22.40
2022-07-31T19:36:07.622Z,22.30
2022-07-31T19:38:36.137Z,22.30
2022-07-31T19:41:03.418Z,22.20
2022-07-31T19:43:30.598Z,22.10
2022-07-31T19:46:02.548Z,22.10
2022-07-31T19:48:45.266Z,22.00
2022-07-31T19:51:14.018Z,22.00
2022-07-31T19:53:41.919Z,21.90
2022-07-31T19:56:09.912Z,21.90
2022-07-31T19:58:38.280Z,21.80
2022-07-31T20:01:05.910Z,21.80
2022-07-31T20:03:33.579Z,21.80
2022-07-31T20:06:01.430Z,21.70
2022-07-31T20:08:33.098Z,21.60
2022-07-31T20:11:04.182Z,21.50
2022-07-31T20:13:33.236Z,21.50
2022-07-31T20:16:00.767Z,21.40
2022-07-31T20:18:29.070Z,21.40
2022-07-31T20:20:58.733Z,21.30
2022-07-31T20:23:27.000Z,21.30
2022-07-31T20:25:54.052Z,21.30
2022-07-31T20:28:21.612Z,21.20
2022-07-31T20:30:48.613Z,21.10
2022-07-31T20:33:16.093Z,21.10
2022-07-31T20:35:49.340Z,21.10
2022-07-31T20:38:23.893Z,21.00
2022-07-31T20:40:55.384Z,20.90
2022-07-31T20:43:27.717Z,20.90
2022-07-31T20:45:58.882Z,20.90
2022-07-31T20:48:32.878Z,20.80
2022-07-31T20:51:01.537Z,20.80
2022-07-31T20:53:29.189Z,20.70
2022-07-31T20:55:56.592Z,20.70
2022-07-31T20:58:24.591Z,20.60
2022-07-31T21:00:52.901Z,20.60
2022-07-31T21:03:20.245Z,20.50
2022-07-31T21:05:47.602Z,20.50
2022-07-31T21:08:15.015Z,20.40
2022-07-31T21:10:42.277Z,20.30
2022-07-31T21:13:09.435Z,20.40
2022-07-31T21:15:42.745Z,20.40
2022-07-31T21:18:15.575Z,20.40
2022-07-31T21:20:51.007Z,20.20
2022-07-31T21:23:24.797Z,20.20
2022-07-31T21:25:57.603Z,20.10
2022-07-31T21:28:26.774Z,20.10
2022-07-31T21:30:56.355Z,20.00
2022-07-31T21:33:27.734Z,20.00
2022-07-31T21:35:55.696Z,20.00
2022-07-31T21:38:23.443Z,20.00
2022-07-31T21:40:50.698Z,19.90
2022-07-31T21:43:22.125Z,19.90
2022-07-31T21:45:55.065Z,19.80
2022-07-31T21:48:26.982Z,19.80
2022-07-31T21:50:55.147Z,19.80
2022-07-31T21:53:22.939Z,19.70
2022-07-31T21:55:50.310Z,19.70
2022-07-31T21:58:17.536Z,19.60
2022-07-31T22:00:44.862Z,19.60
2022-07-31T22:03:12.165Z,19.60
2022-07-31T22:05:57.631Z,19.60
2022-07-31T22:08:24.855Z,19.50
2022-07-31T22:10:52.633Z,19.40
2022-07-31T22:13:20.282Z,19.40
2022-07-31T22:15:58.385Z,19.30
2022-07-31T22:18:32.973Z,19.30
2022-07-31T22:21:01.688Z,19.30
2022-07-31T22:23:29.831Z,19.30
2022-07-31T22:25:57.450Z,19.30
2022-07-31T22:28:26.531Z,19.30
2022-07-31T22:30:54.295Z,19.20
2022-07-31T22:33:22.076Z,19.20
2022-07-31T22:35:58.133Z,19.20
2022-07-31T22:38:28.011Z,19.10
2022-07-31T22:40:55.157Z,19.10
2022-07-31T22:44:09.862Z,19.10
2022-07-31T22:46:11.822Z,19.00
2022-07-31T22:48:40.710Z,19.00
2022-07-31T22:51:09.008Z,19.00
2022-07-31T22:53:37.862Z,19.00
2022-07-31T22:56:04.935Z,19.00
2022-07-31T22:58:31.883Z,19.00
2022-07-31T23:00:58.809Z,19.00
2022-07-31T23:03:25.864Z,19.00
2022-07-31T23:06:03.021Z,19.00
2022-07-31T23:08:39.855Z,19.00
2022-07-31T23:11:06.784Z,18.90
2022-07-31T23:13:33.737Z,18.80
2022-07-31T23:16:00.676Z,18.80
2022-07-31T23:18:28.365Z,18.80
2022-07-31T23:20:55.376Z,18.80
2022-07-31T23:23:22.321Z,18.80
2022-07-31T23:25:49.320Z,18.70
2022-07-31T23:28:16.336Z,18.70
2022-07-31T23:30:43.283Z,18.70
2022-07-31T23:33:11.857Z,18.70
2022-07-31T23:35:38.824Z,18.60
2022-07-31T23:38:05.746Z,18.60
2022-07-31T23:40:32.753Z,18.50
2022-07-31T23:42:59.734Z,18.50
2022-07-31T23:45:26.651Z,18.40
2022-07-31T23:47:54.738Z,18.40
2022-07-31T23:50:25.992Z,18.40
2022-07-31T23:52:53.000Z,18.40
2022-07-31T23:55:20.307Z,18.30
2022-07-31T23:57:47.295Z,18.30
